Airfield :
LOGIN :

Register | Disclaimer

   EN    FR    IT 

 










Legend :    VFR   Marginal VFR   IFR   Intensive IFR   Very Intensive IFR
Visi :
Ceiling :
>= 8 km
>= 3000ft
5 to 8 km
1000 to 3000 ft
1500m to 5 km
500 to 1000 ft
800 to 1500m
200 to 500 ft
< 800m
< 200 ft
Symbols :   Thunderstorms  Fog  Heavy snow  Heavy precipitations  Wind > 20 kt
SIGMETs :     Misc.  Thunderstorms  Icing  Turbulence  Mountain Waves  Volcanic Ashes







- Airport Elevation : 681 ft
- IATA code : LBA
- Download approach charts


EGNM - Leeds Bradford

CURRENT METAR :
  • 181120Z 27014KT 9999 FEW020CB SCT024 18/10 Q1008

EXPIRED METARs :
  • 181050Z 26012KT 240V310 9999 -SHRA FEW020CB SCT024 17/11 Q1008
  • 181020Z 26014KT 9999 -SHRA SCT024 SCT033 16/10 Q1008
  • 180950Z 26011KT 9999 FEW022 SCT025 16/10 Q1008
  • 180920Z 25013KT 9999 FEW020 SCT024 16/10 Q1007
  • 180850Z 26008KT 220V290 9999 FEW019 SCT024 16/11 Q1007

TAF TAF EGNM
Valid from the 18 at 12:00 until the 19 at 12:00 UTC


181056Z 1812/1912 26012KT 9999 SCT020
PROB30
TEMPO 1812/1816 27015G25KT 8000 SHRA
BECMG 1819/1822 20005KT
TEMPO 1908/1912 7000 RA BKN012
PROB40 1909/1912 14010KT
PROB30
TEMPO 1909/1912 4000 +RA BKN009
ATIS : +44 113 250 9696 (x2489)
No reported NOTAMs for that airfield.



MET'MAP, your aeronautical weather chart ! - Copyright ORBIFLY December 2007 - Disclaimer

ORBIFLY MET'MAP TEAM :

Programming & Development : Alexandra Zaïnal
Concept & Development : Baudouin d'Aumeries
Co-Development & Prog : Marc-Olivier Méhu
Technical & hardware support : Manuel Goepfert

Contact : metmap@orbifly.com




SOURCES & CREDITS :

   NOAA